KAFN

Jaffrey-Silver Ranch Airport

Jaffrey, New Hampshire, USA
METAR KAFN 140652Z AUTO 00000KT 10SM OVC015 M03/M06 A3050 RMK AO2 SLP348 T10281061
Observed Flight Rules
Dec-14 @ 06:52 UTC (49 minutes ago) Marginal Visual Flight Rules
Visibility Clouds
10 miles
  • Overcast at 1,500' AGL
Temperatures Readings
Current -3°C / 27°F
Dewpoint -6°C / 21°F
Humidity 80%
Altimeter 30.5" Hg
Pressure 1034.8 hPa
Elevation 313
METAR KAFN 140652Z AUTO 00000KT 10SM OVC015 M03/M06 A3050 RMK AO2 SLP348 T10281061
Observed Flight Rules
Dec-14 @ 06:52 UTC
(49 minutes ago)
MVFR
Clouds
  • Overcast at 1,500' AGL
Temperature Dewpoint
-3°C / 27°F -6°C / 21°F
Humidity Altimeter Pressure
80% 30.5" Hg 1034.8 hPa